sensor_id;sensor_type;location;lat;lon;timestamp;P1;durP1;ratioP1;P2;durP2;ratioP2
46216;SDS011;47258;59.424;13.482;2022-08-21T00:00:06;11.27;;;3.38;;
46216;SDS011;47258;59.424;13.482;2022-08-21T00:02:35;14.30;;;4.35;;
46216;SDS011;47258;59.424;13.482;2022-08-21T00:05:02;13.68;;;3.95;;
46216;SDS011;47258;59.424;13.482;2022-08-21T00:07:29;18.35;;;4.70;;
46216;SDS011;47258;59.424;13.482;2022-08-21T00:09:56;19.30;;;4.15;;
46216;SDS011;47258;59.424;13.482;2022-08-21T00:12:25;16.42;;;4.25;;
46216;SDS011;47258;59.424;13.482;2022-08-21T00:14:52;17.23;;;4.88;;
46216;SDS011;47258;59.424;13.482;2022-08-21T00:17:19;14.98;;;4.13;;
46216;SDS011;47258;59.424;13.482;2022-08-21T00:19:47;19.30;;;4.25;;
46216;SDS011;47258;59.424;13.482;2022-08-21T00:22:14;22.58;;;5.25;;
46216;SDS011;47258;59.424;13.482;2022-08-21T00:24:42;18.67;;;6.05;;
46216;SDS011;47258;59.424;13.482;2022-08-21T00:27:09;15.80;;;4.47;;
46216;SDS011;47258;59.424;13.482;2022-08-21T00:29:37;16.42;;;4.85;;
46216;SDS011;47258;59.424;13.482;2022-08-21T00:32:04;18.50;;;5.47;;
46216;SDS011;47258;59.424;13.482;2022-08-21T00:34:31;17.15;;;6.47;;
46216;SDS011;47258;59.424;13.482;2022-08-21T00:36:58;15.80;;;5.15;;
46216;SDS011;47258;59.424;13.482;2022-08-21T00:39:26;18.88;;;4.85;;
46216;SDS011;47258;59.424;13.482;2022-08-21T00:41:53;16.50;;;4.97;;
46216;SDS011;47258;59.424;13.482;2022-08-21T00:44:20;19.92;;;5.72;;
46216;SDS011;47258;59.424;13.482;2022-08-21T00:46:48;20.50;;;5.82;;
46216;SDS011;47258;59.424;13.482;2022-08-21T00:49:15;15.13;;;5.32;;
46216;SDS011;47258;59.424;13.482;2022-08-21T00:51:43;16.95;;;4.90;;
46216;SDS011;47258;59.424;13.482;2022-08-21T00:54:15;13.10;;;5.43;;
46216;SDS011;47258;59.424;13.482;2022-08-21T00:56:45;16.15;;;4.78;;
46216;SDS011;47258;59.424;13.482;2022-08-21T00:59:15;11.18;;;4.45;;
46216;SDS011;47258;59.424;13.482;2022-08-21T01:01:43;19.73;;;5.47;;
46216;SDS011;47258;59.424;13.482;2022-08-21T01:04:17;19.42;;;5.32;;
46216;SDS011;47258;59.424;13.482;2022-08-21T01:06:45;18.77;;;5.40;;
46216;SDS011;47258;59.424;13.482;2022-08-21T01:09:13;18.95;;;5.20;;
46216;SDS011;47258;59.424;13.482;2022-08-21T01:11:40;20.15;;;5.63;;
46216;SDS011;47258;59.424;13.482;2022-08-21T01:14:09;14.70;;;4.22;;
46216;SDS011;47258;59.424;13.482;2022-08-21T01:16:37;20.15;;;4.82;;
46216;SDS011;47258;59.424;13.482;2022-08-21T01:19:06;11.02;;;4.05;;
46216;SDS011;47258;59.424;13.482;2022-08-21T01:21:37;14.23;;;4.20;;
46216;SDS011;47258;59.424;13.482;2022-08-21T01:24:04;11.90;;;4.95;;
46216;SDS011;47258;59.424;13.482;2022-08-21T01:26:33;10.85;;;4.55;;
46216;SDS011;47258;59.424;13.482;2022-08-21T01:31:35;19.95;;;5.75;;
46216;SDS011;47258;59.424;13.482;2022-08-21T01:34:03;18.85;;;5.93;;
46216;SDS011;47258;59.424;13.482;2022-08-21T01:36:30;26.40;;;5.57;;
46216;SDS011;47258;59.424;13.482;2022-08-21T01:39:00;13.65;;;6.45;;
46216;SDS011;47258;59.424;13.482;2022-08-21T01:41:27;19.88;;;7.15;;
46216;SDS011;47258;59.424;13.482;2022-08-21T01:43:54;20.10;;;6.22;;
46216;SDS011;47258;59.424;13.482;2022-08-21T01:46:21;19.55;;;7.05;;
46216;SDS011;47258;59.424;13.482;2022-08-21T01:48:48;18.98;;;6.57;;
46216;SDS011;47258;59.424;13.482;2022-08-21T01:51:15;28.10;;;6.93;;
46216;SDS011;47258;59.424;13.482;2022-08-21T01:53:42;20.42;;;6.90;;
46216;SDS011;47258;59.424;13.482;2022-08-21T01:56:12;25.48;;;6.88;;
46216;SDS011;47258;59.424;13.482;2022-08-21T01:58:42;25.50;;;7.47;;
46216;SDS011;47258;59.424;13.482;2022-08-21T02:01:11;21.35;;;7.63;;
46216;SDS011;47258;59.424;13.482;2022-08-21T02:03:39;22.50;;;6.78;;
46216;SDS011;47258;59.424;13.482;2022-08-21T02:06:06;23.98;;;8.18;;
46216;SDS011;47258;59.424;13.482;2022-08-21T02:08:38;20.23;;;7.93;;
46216;SDS011;47258;59.424;13.482;2022-08-21T02:11:05;18.90;;;8.50;;
46216;SDS011;47258;59.424;13.482;2022-08-21T02:13:33;26.17;;;8.52;;
46216;SDS011;47258;59.424;13.482;2022-08-21T02:16:00;19.98;;;7.00;;
46216;SDS011;47258;59.424;13.482;2022-08-21T02:18:27;23.05;;;7.85;;
46216;SDS011;47258;59.424;13.482;2022-08-21T02:20:55;20.52;;;7.57;;
46216;SDS011;47258;59.424;13.482;2022-08-21T02:23:22;20.60;;;7.38;;
46216;SDS011;47258;59.424;13.482;2022-08-21T02:25:49;21.30;;;7.25;;
46216;SDS011;47258;59.424;13.482;2022-08-21T02:28:16;20.58;;;7.15;;
46216;SDS011;47258;59.424;13.482;2022-08-21T02:30:46;23.73;;;6.45;;
46216;SDS011;47258;59.424;13.482;2022-08-21T02:33:14;16.40;;;6.47;;
46216;SDS011;47258;59.424;13.482;2022-08-21T02:35:42;20.40;;;6.10;;
46216;SDS011;47258;59.424;13.482;2022-08-21T02:38:12;21.35;;;7.43;;
46216;SDS011;47258;59.424;13.482;2022-08-21T02:40:42;22.13;;;6.90;;
46216;SDS011;47258;59.424;13.482;2022-08-21T02:43:11;18.23;;;7.05;;
46216;SDS011;47258;59.424;13.482;2022-08-21T02:45:38;20.88;;;6.53;;
46216;SDS011;47258;59.424;13.482;2022-08-21T02:48:08;17.83;;;6.80;;
46216;SDS011;47258;59.424;13.482;2022-08-21T02:50:39;18.55;;;6.57;;
46216;SDS011;47258;59.424;13.482;2022-08-21T02:53:08;20.67;;;5.10;;
46216;SDS011;47258;59.424;13.482;2022-08-21T02:55:36;19.45;;;6.40;;
46216;SDS011;47258;59.424;13.482;2022-08-21T02:58:04;23.30;;;6.80;;
46216;SDS011;47258;59.424;13.482;2022-08-21T03:00:33;30.45;;;7.80;;
46216;SDS011;47258;59.424;13.482;2022-08-21T03:03:02;29.70;;;7.10;;
46216;SDS011;47258;59.424;13.482;2022-08-21T03:05:32;15.75;;;5.72;;
46216;SDS011;47258;59.424;13.482;2022-08-21T03:08:03;16.15;;;6.78;;
46216;SDS011;47258;59.424;13.482;2022-08-21T03:10:35;22.55;;;7.25;;
46216;SDS011;47258;59.424;13.482;2022-08-21T03:13:02;24.52;;;7.10;;
46216;SDS011;47258;59.424;13.482;2022-08-21T03:15:29;14.75;;;5.85;;
46216;SDS011;47258;59.424;13.482;2022-08-21T03:17:58;18.95;;;6.22;;
46216;SDS011;47258;59.424;13.482;2022-08-21T03:20:27;29.65;;;6.55;;
46216;SDS011;47258;59.424;13.482;2022-08-21T03:22:59;21.58;;;6.45;;
46216;SDS011;47258;59.424;13.482;2022-08-21T03:25:27;21.23;;;5.43;;
46216;SDS011;47258;59.424;13.482;2022-08-21T03:27:54;24.75;;;5.93;;
46216;SDS011;47258;59.424;13.482;2022-08-21T03:30:21;13.20;;;6.13;;
46216;SDS011;47258;59.424;13.482;2022-08-21T03:32:48;22.77;;;5.60;;
46216;SDS011;47258;59.424;13.482;2022-08-21T03:35:15;17.35;;;6.55;;
46216;SDS011;47258;59.424;13.482;2022-08-21T03:37:43;32.70;;;7.32;;
46216;SDS011;47258;59.424;13.482;2022-08-21T03:40:13;18.67;;;6.72;;
46216;SDS011;47258;59.424;13.482;2022-08-21T03:42:41;21.55;;;7.30;;
46216;SDS011;47258;59.424;13.482;2022-08-21T03:45:09;18.75;;;7.15;;
46216;SDS011;47258;59.424;13.482;2022-08-21T03:47:36;26.90;;;6.53;;
46216;SDS011;47258;59.424;13.482;2022-08-21T03:50:03;31.85;;;7.60;;
46216;SDS011;47258;59.424;13.482;2022-08-21T03:52:31;17.33;;;6.78;;
46216;SDS011;47258;59.424;13.482;2022-08-21T03:54:58;22.80;;;5.55;;
46216;SDS011;47258;59.424;13.482;2022-08-21T03:57:26;14.77;;;6.30;;
46216;SDS011;47258;59.424;13.482;2022-08-21T03:59:53;18.75;;;5.55;;
46216;SDS011;47258;59.424;13.482;2022-08-21T04:02:20;19.00;;;5.97;;
46216;SDS011;47258;59.424;13.482;2022-08-21T04:04:48;19.20;;;7.28;;
46216;SDS011;47258;59.424;13.482;2022-08-21T04:07:14;25.50;;;5.97;;
46216;SDS011;47258;59.424;13.482;2022-08-21T04:09:42;18.02;;;6.10;;
46216;SDS011;47258;59.424;13.482;2022-08-21T04:12:09;22.00;;;6.78;;
46216;SDS011;47258;59.424;13.482;2022-08-21T04:14:38;17.02;;;6.00;;
46216;SDS011;47258;59.424;13.482;2022-08-21T04:17:05;18.63;;;6.03;;
46216;SDS011;47258;59.424;13.482;2022-08-21T04:19:32;16.42;;;5.57;;
46216;SDS011;47258;59.424;13.482;2022-08-21T04:21:59;14.07;;;6.13;;
46216;SDS011;47258;59.424;13.482;2022-08-21T04:24:26;10.70;;;4.53;;
46216;SDS011;47258;59.424;13.482;2022-08-21T04:26:52;11.35;;;4.53;;
46216;SDS011;47258;59.424;13.482;2022-08-21T04:29:19;15.90;;;5.88;;
46216;SDS011;47258;59.424;13.482;2022-08-21T04:31:48;12.50;;;5.35;;
46216;SDS011;47258;59.424;13.482;2022-08-21T04:34:17;17.48;;;5.50;;
46216;SDS011;47258;59.424;13.482;2022-08-21T04:36:44;10.00;;;5.07;;
46216;SDS011;47258;59.424;13.482;2022-08-21T04:39:11;18.58;;;4.85;;
46216;SDS011;47258;59.424;13.482;2022-08-21T04:41:38;14.23;;;5.35;;
46216;SDS011;47258;59.424;13.482;2022-08-21T04:44:06;14.13;;;5.28;;
46216;SDS011;47258;59.424;13.482;2022-08-21T04:46:33;17.45;;;5.85;;
46216;SDS011;47258;59.424;13.482;2022-08-21T04:49:02;16.00;;;5.40;;
46216;SDS011;47258;59.424;13.482;2022-08-21T04:51:30;13.55;;;6.70;;
46216;SDS011;47258;59.424;13.482;2022-08-21T04:54:00;17.17;;;5.93;;
46216;SDS011;47258;59.424;13.482;2022-08-21T04:58:58;11.27;;;5.22;;
46216;SDS011;47258;59.424;13.482;2022-08-21T05:01:29;17.17;;;5.20;;
46216;SDS011;47258;59.424;13.482;2022-08-21T05:03:59;16.60;;;5.57;;
46216;SDS011;47258;59.424;13.482;2022-08-21T05:06:30;18.45;;;5.45;;
46216;SDS011;47258;59.424;13.482;2022-08-21T05:09:02;12.27;;;4.05;;
46216;SDS011;47258;59.424;13.482;2022-08-21T05:11:30;15.27;;;4.55;;
46216;SDS011;47258;59.424;13.482;2022-08-21T05:13:58;8.13;;;5.40;;
46216;SDS011;47258;59.424;13.482;2022-08-21T05:16:25;12.02;;;5.55;;
46216;SDS011;47258;59.424;13.482;2022-08-21T05:18:53;17.90;;;6.07;;
46216;SDS011;47258;59.424;13.482;2022-08-21T05:21:21;19.38;;;6.22;;
46216;SDS011;47258;59.424;13.482;2022-08-21T05:23:48;18.48;;;5.75;;
46216;SDS011;47258;59.424;13.482;2022-08-21T05:26:15;14.32;;;5.70;;
46216;SDS011;47258;59.424;13.482;2022-08-21T05:28:42;15.32;;;5.18;;
46216;SDS011;47258;59.424;13.482;2022-08-21T05:31:10;17.88;;;6.40;;
46216;SDS011;47258;59.424;13.482;2022-08-21T05:33:37;17.13;;;6.32;;
46216;SDS011;47258;59.424;13.482;2022-08-21T05:36:04;14.02;;;3.95;;
46216;SDS011;47258;59.424;13.482;2022-08-21T05:38:32;12.70;;;4.35;;
46216;SDS011;47258;59.424;13.482;2022-08-21T05:40:59;18.55;;;4.30;;
46216;SDS011;47258;59.424;13.482;2022-08-21T05:43:26;14.60;;;4.28;;
46216;SDS011;47258;59.424;13.482;2022-08-21T05:45:53;15.70;;;4.30;;
46216;SDS011;47258;59.424;13.482;2022-08-21T05:48:21;12.13;;;3.75;;
46216;SDS011;47258;59.424;13.482;2022-08-21T05:50:50;11.90;;;3.80;;
46216;SDS011;47258;59.424;13.482;2022-08-21T05:53:19;18.52;;;3.47;;
46216;SDS011;47258;59.424;13.482;2022-08-21T05:55:49;13.43;;;3.67;;
46216;SDS011;47258;59.424;13.482;2022-08-21T05:58:17;16.80;;;4.55;;
46216;SDS011;47258;59.424;13.482;2022-08-21T06:00:45;16.25;;;2.70;;
46216;SDS011;47258;59.424;13.482;2022-08-21T06:03:14;13.38;;;4.97;;
46216;SDS011;47258;59.424;13.482;2022-08-21T06:05:43;12.57;;;3.60;;
46216;SDS011;47258;59.424;13.482;2022-08-21T06:08:10;18.15;;;3.58;;
46216;SDS011;47258;59.424;13.482;2022-08-21T06:10:37;16.90;;;2.78;;
46216;SDS011;47258;59.424;13.482;2022-08-21T06:13:06;10.27;;;2.50;;
46216;SDS011;47258;59.424;13.482;2022-08-21T06:15:34;12.52;;;2.85;;
46216;SDS011;47258;59.424;13.482;2022-08-21T06:18:01;11.05;;;3.08;;
46216;SDS011;47258;59.424;13.482;2022-08-21T06:20:29;11.02;;;3.10;;
46216;SDS011;47258;59.424;13.482;2022-08-21T06:22:56;14.40;;;2.85;;
46216;SDS011;47258;59.424;13.482;2022-08-21T06:25:24;15.45;;;3.65;;
46216;SDS011;47258;59.424;13.482;2022-08-21T06:27:51;12.07;;;2.78;;
46216;SDS011;47258;59.424;13.482;2022-08-21T06:30:20;9.73;;;2.33;;
46216;SDS011;47258;59.424;13.482;2022-08-21T06:32:47;16.00;;;2.78;;
46216;SDS011;47258;59.424;13.482;2022-08-21T06:35:14;7.30;;;2.42;;
46216;SDS011;47258;59.424;13.482;2022-08-21T06:37:41;7.80;;;2.00;;
46216;SDS011;47258;59.424;13.482;2022-08-21T06:40:08;7.85;;;3.28;;
46216;SDS011;47258;59.424;13.482;2022-08-21T06:42:37;6.60;;;2.30;;
46216;SDS011;47258;59.424;13.482;2022-08-21T06:45:04;7.20;;;1.40;;
46216;SDS011;47258;59.424;13.482;2022-08-21T06:47:33;7.55;;;1.90;;
46216;SDS011;47258;59.424;13.482;2022-08-21T06:50:00;4.57;;;2.00;;
46216;SDS011;47258;59.424;13.482;2022-08-21T06:52:27;5.85;;;2.10;;
46216;SDS011;47258;59.424;13.482;2022-08-21T06:54:54;8.93;;;2.03;;
46216;SDS011;47258;59.424;13.482;2022-08-21T06:57:21;5.40;;;1.30;;
46216;SDS011;47258;59.424;13.482;2022-08-21T06:59:48;7.45;;;1.85;;
46216;SDS011;47258;59.424;13.482;2022-08-21T07:02:15;8.15;;;2.08;;
46216;SDS011;47258;59.424;13.482;2022-08-21T07:04:44;4.15;;;1.27;;
46216;SDS011;47258;59.424;13.482;2022-08-21T07:07:11;4.97;;;1.75;;
46216;SDS011;47258;59.424;13.482;2022-08-21T07:09:38;6.47;;;1.73;;
46216;SDS011;47258;59.424;13.482;2022-08-21T07:12:05;4.75;;;2.03;;
46216;SDS011;47258;59.424;13.482;2022-08-21T07:14:32;4.38;;;1.75;;
46216;SDS011;47258;59.424;13.482;2022-08-21T07:16:59;7.35;;;1.58;;
46216;SDS011;47258;59.424;13.482;2022-08-21T07:19:26;8.63;;;2.65;;
46216;SDS011;47258;59.424;13.482;2022-08-21T07:21:57;5.65;;;1.70;;
46216;SDS011;47258;59.424;13.482;2022-08-21T07:24:26;5.68;;;1.92;;
46216;SDS011;47258;59.424;13.482;2022-08-21T07:26:54;4.93;;;1.73;;
46216;SDS011;47258;59.424;13.482;2022-08-21T07:29:21;5.63;;;2.10;;
46216;SDS011;47258;59.424;13.482;2022-08-21T07:31:48;3.95;;;1.60;;
46216;SDS011;47258;59.424;13.482;2022-08-21T07:34:15;5.10;;;1.40;;
46216;SDS011;47258;59.424;13.482;2022-08-21T07:36:42;4.78;;;1.63;;
46216;SDS011;47258;59.424;13.482;2022-08-21T07:39:10;6.60;;;1.20;;
46216;SDS011;47258;59.424;13.482;2022-08-21T07:41:37;5.53;;;2.10;;
46216;SDS011;47258;59.424;13.482;2022-08-21T07:44:04;10.02;;;2.03;;
46216;SDS011;47258;59.424;13.482;2022-08-21T07:46:31;3.92;;;1.65;;
46216;SDS011;47258;59.424;13.482;2022-08-21T07:48:58;4.50;;;1.42;;
46216;SDS011;47258;59.424;13.482;2022-08-21T07:51:26;4.07;;;1.80;;
46216;SDS011;47258;59.424;13.482;2022-08-21T07:53:55;6.18;;;1.67;;
46216;SDS011;47258;59.424;13.482;2022-08-21T07:58:52;6.15;;;1.67;;
46216;SDS011;47258;59.424;13.482;2022-08-21T08:01:20;7.70;;;1.77;;
46216;SDS011;47258;59.424;13.482;2022-08-21T08:03:48;4.03;;;1.20;;
46216;SDS011;47258;59.424;13.482;2022-08-21T08:06:15;9.68;;;1.85;;
46216;SDS011;47258;59.424;13.482;2022-08-21T08:08:43;4.78;;;1.55;;
46216;SDS011;47258;59.424;13.482;2022-08-21T08:11:11;7.15;;;1.60;;
46216;SDS011;47258;59.424;13.482;2022-08-21T08:13:42;3.55;;;1.25;;
46216;SDS011;47258;59.424;13.482;2022-08-21T08:16:10;1.70;;;0.88;;
46216;SDS011;47258;59.424;13.482;2022-08-21T08:18:37;5.47;;;1.67;;
46216;SDS011;47258;59.424;13.482;2022-08-21T08:21:05;2.50;;;0.90;;
46216;SDS011;47258;59.424;13.482;2022-08-21T08:23:32;2.65;;;0.88;;
46216;SDS011;47258;59.424;13.482;2022-08-21T08:25:59;2.17;;;1.13;;
46216;SDS011;47258;59.424;13.482;2022-08-21T08:28:27;4.60;;;1.58;;
46216;SDS011;47258;59.424;13.482;2022-08-21T08:30:58;3.33;;;1.60;;
46216;SDS011;47258;59.424;13.482;2022-08-21T08:33:26;3.10;;;1.63;;
46216;SDS011;47258;59.424;13.482;2022-08-21T08:35:53;0.98;;;0.70;;
46216;SDS011;47258;59.424;13.482;2022-08-21T08:38:22;7.88;;;0.98;;
46216;SDS011;47258;59.424;13.482;2022-08-21T08:40:52;3.38;;;1.55;;
46216;SDS011;47258;59.424;13.482;2022-08-21T08:43:26;5.55;;;1.45;;
46216;SDS011;47258;59.424;13.482;2022-08-21T08:45:55;3.97;;;1.20;;
46216;SDS011;47258;59.424;13.482;2022-08-21T08:48:31;4.25;;;1.30;;
46216;SDS011;47258;59.424;13.482;2022-08-21T08:51:08;3.50;;;1.17;;
46216;SDS011;47258;59.424;13.482;2022-08-21T08:53:43;3.38;;;0.98;;
46216;SDS011;47258;59.424;13.482;2022-08-21T08:56:18;2.33;;;1.05;;
46216;SDS011;47258;59.424;13.482;2022-08-21T08:58:52;3.88;;;0.93;;
46216;SDS011;47258;59.424;13.482;2022-08-21T09:01:22;2.50;;;1.02;;
46216;SDS011;47258;59.424;13.482;2022-08-21T09:03:49;3.30;;;1.88;;
46216;SDS011;47258;59.424;13.482;2022-08-21T09:06:28;4.32;;;1.38;;
46216;SDS011;47258;59.424;13.482;2022-08-21T09:09:09;3.47;;;1.77;;
46216;SDS011;47258;59.424;13.482;2022-08-21T09:11:48;2.22;;;1.30;;
46216;SDS011;47258;59.424;13.482;2022-08-21T09:14:22;3.78;;;1.33;;
46216;SDS011;47258;59.424;13.482;2022-08-21T09:16:56;3.90;;;1.15;;
46216;SDS011;47258;59.424;13.482;2022-08-21T09:19:36;5.07;;;1.67;;
46216;SDS011;47258;59.424;13.482;2022-08-21T09:22:16;2.55;;;1.17;;
46216;SDS011;47258;59.424;13.482;2022-08-21T09:24:54;3.85;;;1.38;;
46216;SDS011;47258;59.424;13.482;2022-08-21T09:27:28;3.47;;;1.83;;
46216;SDS011;47258;59.424;13.482;2022-08-21T09:29:57;7.28;;;1.70;;
46216;SDS011;47258;59.424;13.482;2022-08-21T09:32:26;4.65;;;1.25;;
46216;SDS011;47258;59.424;13.482;2022-08-21T09:34:56;4.25;;;1.40;;
46216;SDS011;47258;59.424;13.482;2022-08-21T09:37:25;5.03;;;1.17;;
46216;SDS011;47258;59.424;13.482;2022-08-21T09:39:54;8.63;;;1.80;;
46216;SDS011;47258;59.424;13.482;2022-08-21T09:42:24;4.10;;;1.67;;
46216;SDS011;47258;59.424;13.482;2022-08-21T09:45:08;3.40;;;1.98;;
46216;SDS011;47258;59.424;13.482;2022-08-21T09:47:41;6.32;;;1.30;;
46216;SDS011;47258;59.424;13.482;2022-08-21T09:52:41;4.68;;;1.10;;
46216;SDS011;47258;59.424;13.482;2022-08-21T09:55:14;5.82;;;1.63;;
46216;SDS011;47258;59.424;13.482;2022-08-21T09:57:59;4.50;;;1.40;;
46216;SDS011;47258;59.424;13.482;2022-08-21T10:00:28;4.82;;;1.17;;
46216;SDS011;47258;59.424;13.482;2022-08-21T10:03:08;2.67;;;1.02;;
46216;SDS011;47258;59.424;13.482;2022-08-21T10:05:49;4.45;;;1.98;;
46216;SDS011;47258;59.424;13.482;2022-08-21T10:08:18;6.32;;;1.98;;
46216;SDS011;47258;59.424;13.482;2022-08-21T10:10:49;5.07;;;1.23;;
46216;SDS011;47258;59.424;13.482;2022-08-21T10:13:20;3.03;;;1.30;;
46216;SDS011;47258;59.424;13.482;2022-08-21T10:15:55;4.05;;;1.30;;
46216;SDS011;47258;59.424;13.482;2022-08-21T10:18:33;3.75;;;1.55;;
46216;SDS011;47258;59.424;13.482;2022-08-21T10:21:07;2.10;;;1.30;;
46216;SDS011;47258;59.424;13.482;2022-08-21T10:23:54;3.47;;;1.38;;
46216;SDS011;47258;59.424;13.482;2022-08-21T10:26:30;3.85;;;1.42;;
46216;SDS011;47258;59.424;13.482;2022-08-21T10:29:07;3.55;;;1.08;;
46216;SDS011;47258;59.424;13.482;2022-08-21T10:31:47;3.90;;;0.98;;
46216;SDS011;47258;59.424;13.482;2022-08-21T10:34:29;6.10;;;1.33;;
46216;SDS011;47258;59.424;13.482;2022-08-21T10:37:11;3.42;;;0.98;;
46216;SDS011;47258;59.424;13.482;2022-08-21T10:39:51;3.42;;;1.38;;
46216;SDS011;47258;59.424;13.482;2022-08-21T10:42:31;75.75;;;3.85;;
46216;SDS011;47258;59.424;13.482;2022-08-21T10:45:07;7.32;;;1.42;;
46216;SDS011;47258;59.424;13.482;2022-08-21T10:47:41;4.22;;;1.63;;
46216;SDS011;47258;59.424;13.482;2022-08-21T10:50:17;4.28;;;1.45;;
46216;SDS011;47258;59.424;13.482;2022-08-21T10:52:54;5.55;;;1.42;;
46216;SDS011;47258;59.424;13.482;2022-08-21T10:55:31;3.65;;;1.42;;
46216;SDS011;47258;59.424;13.482;2022-08-21T10:58:02;1.92;;;1.30;;
46216;SDS011;47258;59.424;13.482;2022-08-21T11:00:35;5.20;;;1.50;;
46216;SDS011;47258;59.424;13.482;2022-08-21T11:03:08;4.28;;;1.60;;
46216;SDS011;47258;59.424;13.482;2022-08-21T11:05:41;4.57;;;1.52;;
46216;SDS011;47258;59.424;13.482;2022-08-21T11:08:14;5.78;;;1.55;;
46216;SDS011;47258;59.424;13.482;2022-08-21T11:10:44;5.78;;;2.00;;
46216;SDS011;47258;59.424;13.482;2022-08-21T11:13:15;10.98;;;2.50;;
46216;SDS011;47258;59.424;13.482;2022-08-21T11:15:56;6.10;;;2.00;;
46216;SDS011;47258;59.424;13.482;2022-08-21T11:18:30;4.10;;;2.00;;
46216;SDS011;47258;59.424;13.482;2022-08-21T11:21:04;7.57;;;2.50;;
46216;SDS011;47258;59.424;13.482;2022-08-21T11:23:40;3.72;;;1.50;;
46216;SDS011;47258;59.424;13.482;2022-08-21T11:26:11;5.20;;;2.55;;
46216;SDS011;47258;59.424;13.482;2022-08-21T11:28:43;8.15;;;1.70;;
46216;SDS011;47258;59.424;13.482;2022-08-21T11:31:32;5.38;;;1.65;;
46216;SDS011;47258;59.424;13.482;2022-08-21T11:34:08;6.90;;;1.80;;
46216;SDS011;47258;59.424;13.482;2022-08-21T11:36:46;3.07;;;1.50;;
46216;SDS011;47258;59.424;13.482;2022-08-21T11:39:20;2.83;;;1.90;;
46216;SDS011;47258;59.424;13.482;2022-08-21T11:41:54;4.68;;;2.05;;
46216;SDS011;47258;59.424;13.482;2022-08-21T11:44:31;4.18;;;1.55;;
46216;SDS011;47258;59.424;13.482;2022-08-21T11:47:10;4.53;;;1.60;;
46216;SDS011;47258;59.424;13.482;2022-08-21T11:49:45;4.78;;;1.77;;
46216;SDS011;47258;59.424;13.482;2022-08-21T11:52:22;2.60;;;1.40;;
46216;SDS011;47258;59.424;13.482;2022-08-21T11:54:55;4.55;;;1.95;;
46216;SDS011;47258;59.424;13.482;2022-08-21T11:57:30;6.75;;;1.63;;
46216;SDS011;47258;59.424;13.482;2022-08-21T12:00:03;3.67;;;1.52;;
46216;SDS011;47258;59.424;13.482;2022-08-21T12:02:34;4.13;;;1.50;;
46216;SDS011;47258;59.424;13.482;2022-08-21T12:05:05;5.05;;;1.40;;
46216;SDS011;47258;59.424;13.482;2022-08-21T12:07:37;5.35;;;1.83;;
46216;SDS011;47258;59.424;13.482;2022-08-21T12:10:07;3.78;;;1.33;;
46216;SDS011;47258;59.424;13.482;2022-08-21T12:12:37;2.88;;;1.42;;
46216;SDS011;47258;59.424;13.482;2022-08-21T12:15:26;2.53;;;1.25;;
46216;SDS011;47258;59.424;13.482;2022-08-21T12:17:57;5.25;;;1.42;;
46216;SDS011;47258;59.424;13.482;2022-08-21T12:20:32;4.60;;;1.52;;
46216;SDS011;47258;59.424;13.482;2022-08-21T12:23:06;3.75;;;1.08;;
46216;SDS011;47258;59.424;13.482;2022-08-21T12:25:44;3.22;;;1.42;;
46216;SDS011;47258;59.424;13.482;2022-08-21T12:28:14;5.10;;;1.75;;
46216;SDS011;47258;59.424;13.482;2022-08-21T12:30:47;5.32;;;1.35;;
46216;SDS011;47258;59.424;13.482;2022-08-21T12:33:19;9.35;;;1.92;;
46216;SDS011;47258;59.424;13.482;2022-08-21T12:35:50;4.70;;;1.30;;
46216;SDS011;47258;59.424;13.482;2022-08-21T12:38:21;2.13;;;1.27;;
46216;SDS011;47258;59.424;13.482;2022-08-21T12:40:54;7.50;;;2.10;;
46216;SDS011;47258;59.424;13.482;2022-08-21T12:43:25;2.58;;;1.40;;
46216;SDS011;47258;59.424;13.482;2022-08-21T12:45:55;7.53;;;1.48;;
46216;SDS011;47258;59.424;13.482;2022-08-21T12:48:27;4.40;;;1.20;;
46216;SDS011;47258;59.424;13.482;2022-08-21T12:50:58;5.35;;;1.73;;
46216;SDS011;47258;59.424;13.482;2022-08-21T12:53:38;2.95;;;1.23;;
46216;SDS011;47258;59.424;13.482;2022-08-21T12:56:11;2.95;;;1.40;;
46216;SDS011;47258;59.424;13.482;2022-08-21T12:58:40;3.13;;;1.30;;
46216;SDS011;47258;59.424;13.482;2022-08-21T13:01:13;3.53;;;1.73;;
46216;SDS011;47258;59.424;13.482;2022-08-21T13:03:45;5.40;;;1.25;;
46216;SDS011;47258;59.424;13.482;2022-08-21T13:06:13;8.70;;;1.48;;
46216;SDS011;47258;59.424;13.482;2022-08-21T13:08:43;4.22;;;1.65;;
46216;SDS011;47258;59.424;13.482;2022-08-21T13:11:13;6.07;;;1.35;;
46216;SDS011;47258;59.424;13.482;2022-08-21T13:13:43;6.25;;;1.75;;
46216;SDS011;47258;59.424;13.482;2022-08-21T13:16:18;2.92;;;1.35;;
46216;SDS011;47258;59.424;13.482;2022-08-21T13:18:52;7.13;;;1.63;;
46216;SDS011;47258;59.424;13.482;2022-08-21T13:21:21;7.57;;;2.10;;
46216;SDS011;47258;59.424;13.482;2022-08-21T13:23:54;5.40;;;1.48;;
46216;SDS011;47258;59.424;13.482;2022-08-21T13:26:40;2.65;;;1.23;;
46216;SDS011;47258;59.424;13.482;2022-08-21T13:29:09;3.30;;;1.73;;
46216;SDS011;47258;59.424;13.482;2022-08-21T13:31:39;4.95;;;1.55;;
46216;SDS011;47258;59.424;13.482;2022-08-21T13:34:08;6.72;;;2.35;;
46216;SDS011;47258;59.424;13.482;2022-08-21T13:36:37;8.30;;;1.90;;
46216;SDS011;47258;59.424;13.482;2022-08-21T13:39:09;4.72;;;1.77;;
46216;SDS011;47258;59.424;13.482;2022-08-21T13:41:39;6.90;;;2.08;;
46216;SDS011;47258;59.424;13.482;2022-08-21T13:44:14;1.98;;;1.48;;
46216;SDS011;47258;59.424;13.482;2022-08-21T13:46:42;3.25;;;1.75;;
46216;SDS011;47258;59.424;13.482;2022-08-21T13:49:10;3.00;;;1.90;;
46216;SDS011;47258;59.424;13.482;2022-08-21T13:51:41;3.78;;;1.77;;
46216;SDS011;47258;59.424;13.482;2022-08-21T13:54:22;2.85;;;2.00;;
46216;SDS011;47258;59.424;13.482;2022-08-21T13:57:00;5.47;;;2.50;;
46216;SDS011;47258;59.424;13.482;2022-08-21T13:59:31;3.97;;;1.88;;
46216;SDS011;47258;59.424;13.482;2022-08-21T14:02:07;8.15;;;2.85;;
46216;SDS011;47258;59.424;13.482;2022-08-21T14:04:39;3.17;;;1.38;;
46216;SDS011;47258;59.424;13.482;2022-08-21T14:07:14;1.33;;;0.90;;
46216;SDS011;47258;59.424;13.482;2022-08-21T14:09:45;2.97;;;1.40;;
46216;SDS011;47258;59.424;13.482;2022-08-21T14:12:13;4.35;;;2.03;;
46216;SDS011;47258;59.424;13.482;2022-08-21T14:14:43;5.25;;;1.20;;
46216;SDS011;47258;59.424;13.482;2022-08-21T14:17:12;2.95;;;1.35;;
46216;SDS011;47258;59.424;13.482;2022-08-21T14:19:51;5.03;;;1.02;;
46216;SDS011;47258;59.424;13.482;2022-08-21T14:22:29;6.70;;;1.60;;
46216;SDS011;47258;59.424;13.482;2022-08-21T14:25:04;4.90;;;1.58;;
46216;SDS011;47258;59.424;13.482;2022-08-21T14:27:35;7.10;;;1.40;;
46216;SDS011;47258;59.424;13.482;2022-08-21T14:30:09;4.55;;;1.83;;
46216;SDS011;47258;59.424;13.482;2022-08-21T14:32:41;2.65;;;1.15;;
46216;SDS011;47258;59.424;13.482;2022-08-21T14:35:09;2.53;;;1.17;;
46216;SDS011;47258;59.424;13.482;2022-08-21T14:37:36;4.88;;;1.30;;
46216;SDS011;47258;59.424;13.482;2022-08-21T14:40:05;2.25;;;1.20;;
46216;SDS011;47258;59.424;13.482;2022-08-21T14:45:00;5.82;;;1.20;;
46216;SDS011;47258;59.424;13.482;2022-08-21T14:47:31;3.03;;;1.42;;
46216;SDS011;47258;59.424;13.482;2022-08-21T14:49:58;1.83;;;0.70;;
46216;SDS011;47258;59.424;13.482;2022-08-21T14:52:25;4.55;;;2.45;;
46216;SDS011;47258;59.424;13.482;2022-08-21T14:54:52;8.27;;;1.90;;
46216;SDS011;47258;59.424;13.482;2022-08-21T14:57:20;2.22;;;1.20;;